Dholka Heliport

IN-0216 · Gujarat, India

Storia di METAR IN-0216 · Dholka Heliport

Di seguito sono riportati i METAR degli ultimi giorni. Seleziona un anno per sfogliare i METAR più vecchi, dall'anno 2007 in poi.

23 luglio 2024

Tempo Codice Tempo meteorologico Temp. Vista Base nuvolosa Vento METAR/SPECI
00:30
I
28 °C 4 km 8.000 ft 180° 180° 8 kt METAR VAAH 221900Z 18008KT 4000 HZ FEW015 SCT020 OVC080 28/25 Q1000 NOSIG
00:00
I
28 °C 4 km 8.000 ft 180° 180° 8 kt METAR VAAH 221830Z 18008KT 4000 HZ FEW015 SCT020 OVC080 28/25 Q1000 NOSIG

22 luglio 2024

Tempo Codice Tempo meteorologico Temp. Vista Base nuvolosa Vento METAR/SPECI
23:30
I
28 °C 4 km 8.000 ft 180° 180° 9 kt METAR VAAH 221800Z 18009KT 4000 HZ FEW015 SCT020 OVC080 28/25 Q1001 NOSIG
23:00
I
28 °C 4 km 8.000 ft 180° 180° 8 kt METAR VAAH 221730Z 18008KT 4000 HZ FEW015 SCT020 OVC080 28/25 Q1001 NOSIG
22:30
I
29 °C 4 km 8.000 ft 360° 360° 0 kt METAR VAAH 221700Z 1807KT 4000 -DZ FEW015 SCT020 OVC080 29/25 Q1001 NOSIG
22:00
I
29 °C 4 km 8.000 ft 180° 180° 7 kt METAR VAAH 221630Z 18007KT 4000 HZ FEW015 SCT020 OVC080 29/25 Q1000 NOSIG
21:30
I
29 °C 4 km 8.000 ft 190° 190° 6 kt METAR VAAH 221600Z 19006KT 4000 HZ FEW015 SCT020 OVC080 29/25 Q1000 NOSIG
21:00
I
29 °C 4 km 8.000 ft 190° 190° 10 - 20 kt METAR VAAH 221530Z 19010G20KT 4000 HZ FEW015 SCT020 OVC080 29/25 Q1000 NOSIG
20:30
I
29 °C 4 km 8.000 ft 180° 180° 10 - 20 kt METAR VAAH 221500Z 18010G20KT 4000 HZ FEW015 SCT020 OVC080 29/25 Q1000 NOSIG
20:00
I
29 °C 4 km 8.000 ft 190° 190° 5 - 15 kt METAR VAAH 221430Z 19005G15KT 4000 HZ FEW012 SCT020 OVC080 29/25 Q1000 TEMPO 2000 DZ
19:30
I
29 °C 4 km 8.000 ft 180° 180° 10 - 20 kt METAR VAAH 221400Z 18010G20KT 4000 HZ FEW015 SCT020 OVC080 29/25 Q0999 NOSIG
19:00
I
29 °C 4 km 8.000 ft 180° 180° 10 - 20 kt METAR VAAH 221330Z 18010G20KT 4000 HZ FEW015 SCT020 OVC080 29/24 Q0998 NOSIG
18:30
I
29 °C 4 km 8.000 ft 170° 170° 10 - 20 kt METAR VAAH 221300Z 17010G20KT 4000 HZ FEW015 SCT020 BKN080 29/24 Q0997 NOSIG
18:00
I
30 °C 4 km 8.000 ft 170° 170° 10 - 20 kt METAR VAAH 221230Z 17010G20KT 4000 HZ FEW015 SCT020 BKN080 30/25 Q0997 NOSIG
17:30
I
30 °C 4 km 8.000 ft 170° 170° 10 - 20 kt METAR VAAH 221200Z 17010G20KT 4000 HZ FEW015 SCT020 BKN080 30/25 Q0997 NOSIG
17:00
I
30 °C 4 km 8.000 ft 160° 160° 10 - 20 kt METAR VAAH 221130Z 16010G20KT 4000 HZ FEW015 SCT020 FEW025TCU BKN080 30/25 Q0997 NOSIG
16:30
I
31 °C 3,5 km 8.000 ft 150° 150° 5 - 15 kt METAR VAAH 221100Z 15005G15KT 3500 HZ FEW015 SCT020 OVC080 31/25 Q0997 NOSIG
16:00
I
32 °C 3,5 km 8.000 ft 160° 160° 5 - 15 kt METAR VAAH 221030Z 16005G15KT 3500 HZ FEW015 SCT020 OVC080 32/25 Q0997 NOSIG
15:30
I
32 °C 3,5 km 8.000 ft 160° 160° 8 kt METAR VAAH 221000Z 16008KT 3500 HZ FEW015 SCT020 OVC080 32/25 Q0997 NOSIG
15:00
I
33 °C 3,5 km 8.000 ft 130° 130° 5 kt METAR VAAH 220930Z 13005KT 3500 HZ FEW015 SCT020 BKN080 33/25 Q0997 NOSIG
14:30
I
33 °C 3,5 km 8.000 ft 180° 180° 7 kt METAR VAAH 220900Z 18007KT 3500 HZ FEW015 SCT020 BKN080 33/25 Q0998 NOSIG
14:00
I
32 °C 3,5 km 8.000 ft 180° 180° 7 kt METAR VAAH 220830Z 18007KT 3500 HZ FEW015 SCT020 BKN080 32/25 Q998 NOSIG
13:30
I
32 °C 3,2 km 8.000 ft 170° 170° 5 kt METAR VAAH 220800Z 17005KT 3200 -DZ FEW015 SCT020 BKN080 32/25 Q999 NOSIG
13:00
I
32 °C 3,5 km 8.000 ft 130° 130° 4 kt METAR VAAH 220730Z 13004KT 3500 HZ FEW015 SCT020 BKN080 32/25 Q999 TEMPO 3000 -DZ
12:30
I
31 °C 3,5 km 8.000 ft 140° 140° 5 kt METAR VAAH 220700Z 14005KT 3500 HZ FEW015 SCT020 BKN080 31/25 Q1000 NOSIG
12:00
I
31 °C 3,5 km 8.000 ft 200° 200° 4 kt METAR VAAH 220630Z 20004KT 3500 HZ FEW020 SCT025 BKN080 31/24 Q1000 NOSIG
11:30
I
31 °C 3,5 km 8.000 ft 190° 190° 3 kt METAR VAAH 220600Z 19003KT 3500 HZ FEW020 SCT025 BKN080 31/25 Q0999 NOSIG
11:00
I
31 °C 3,5 km 8.000 ft 170° 170° 5 kt METAR VAAH 220530Z 17005KT 3500 HZ FEW020 BKN080 31/25 Q1000 NOSIG
10:30
I
30 °C 3,5 km 8.000 ft 240° 240° 3 kt METAR VAAH 220500Z 24003KT 3500 HZ SCT018 BKN080 30/25 Q1000 NOSIG
10:00
I
29 °C 3 km 8.000 ft 200° 200° 3 kt METAR VAAH 220430Z 20003KT 3000 HZ SCT018 BKN080 29/25 Q1000 NOSIG
09:30
I
29 °C 2,5 km 8.000 ft 160° 160° 2 kt METAR VAAH 220400Z 16002KT 2500 HZ SCT018 BKN080 29/25 Q1000 NOSIG
09:00
I
28 °C 2 km 8.000 ft 200° 200° 4 kt METAR VAAH 220330Z 20004KT 2000 BR SCT018 BKN080 28/25 Q1000 BECMG 2500 HZ
08:30
I
28 °C 2 km 8.000 ft 180° 180° 5 kt METAR VAAH 220300Z 18005KT 2000 BR SCT018 OVC080 28/25 Q1000 NOSIG
08:00
I
27 °C 2 km 8.000 ft 190° 190° 3 kt METAR VAAH 220230Z 19003KT 2000 BR SCT015 SCT020 OVC080 27/25 Q1000 NOSIG
07:30
I
27 °C 2 km 8.000 ft 190° 190° 5 kt METAR VAAH 220200Z 19005KT 2000 BR SCT015 SCT020 OVC080 27/25 Q1000 TEMPO 1500 -DZ
07:00
I
27 °C 2 km 8.000 ft 190° 190° 5 kt METAR VAAH 220130Z 19005KT 2000 BR SCT015 SCT020 OVC080 27/25 Q1000 TEMPO 1500 -DZ
06:30
I
27 °C 4 km 8.000 ft 190° 190° 7 kt METAR VAAH 220100Z 19007KT 4000 -DZ BR SCT015 SCT020 OVC080 27/25 Q0999 TEMPO 3000 -RA
06:00
I
27 °C 4 km 8.000 ft 200° 200° 4 kt METAR VAAH 220030Z 20004KT 4000 BR SCT015 SCT020 OVC080 27/24 Q0999 NOSIG
05:30
I
27 °C 4 km 8.000 ft 190° 190° 6 kt METAR VAAH 220000Z 19006KT 4000 BR FEW015 SCT020 BKN080 27/24 Q0999 NOSIG
05:00
I
27 °C 4 km 8.000 ft 190° 190° 8 kt METAR VAAH 212330Z 19008KT 4000 BR FEW018 BKN080 27/25 Q0998 NOSIG
04:30
I
27 °C 4 km 8.000 ft 190° 190° 7 kt METAR VAAH 212300Z 19007KT 4000 BR FEW018 BKN080 27/24 Q0998 NOSIG
04:00
I
27 °C 4 km 8.000 ft 190° 190° 7 kt METAR VAAH 212230Z 19007KT 4000 BR FEW018 BKN080 27/25 Q0998 NOSIG
03:30
I
27 °C 4 km 7.000 ft 210° 210° 6 kt METAR VAAH 212200Z 21006KT 4000 BR FEW018 OVC070 27/24 Q0997 NOSIG
03:00
I
27 °C 4 km 7.000 ft 200° 200° 9 kt METAR VAAH 212130Z 20009KT 4000 BR FEW018 OVC070 27/25 Q0998 NOSIG
02:30
I
27 °C 4 km 7.000 ft 190° 190° 8 kt METAR VAAH 212100Z 19008KT 4000 BR SCT018 OVC070 27/24 Q0999 TEMPO 3000 -RA
02:00
I
28 °C 4 km 7.000 ft 200° 200° 10 kt METAR VAAH 212030Z 20010KT 4000 -DZ BR SCT018 OVC070 28/25 Q0999 TEMPO 3000 -RA
01:30
I
29 °C 4 km 7.000 ft 190° 190° 9 kt METAR VAAH 212000Z 19009KT 4000 -DZ BR SCT018 OVC070 29/25 Q0999 TEMPO 3000 -RA
01:00
I
29 °C 4 km 1.800 ft 180° 180° 7 kt METAR VAAH 211930Z 18007KT 4000 BR BKN018 OVC070 29/25 Q0999 TEMPO 3000 -RA
00:30
I
29 °C 3,5 km 7.000 ft 200° 200° 8 kt METAR VAAH 211900Z 20008KT 3500 BR SCT018 OVC070 29/26 Q0999 TEMPO 3000 -RA
00:00
I
29 °C 3,5 km 7.000 ft 190° 190° 6 kt METAR VAAH 211830Z 19006KT 3500 -DZ BR FEW018 OVC070 29/26 Q0999 TEMPO 3000 -RA

21 luglio 2024

Tempo Codice Tempo meteorologico Temp. Vista Base nuvolosa Vento METAR/SPECI
23:30
I
30 °C 3,5 km 8.000 ft 140° 140° 4 kt METAR VAAH 211800Z 14004KT 3500 BR FEW018 BKN080 30/26 Q0999 NOSIG
23:00
I
30 °C 3,5 km 8.000 ft 150° 150° 4 kt METAR VAAH 211730Z 15004KT 3500 BR SCT018 BKN080 30/26 Q0999 NOSIG
22:30
I
30 °C 3,5 km - 130° 130° 5 kt METAR VAAH 211700Z 13005KT 3500 BR SCT018 SCT080 30/27 Q0999 NOSIG
22:00
I
30 °C 3,5 km 8.000 ft 120° 120° 4 kt METAR VAAH 211630Z 12004KT 3500 HZ SCT015 BKN080 30/26 Q0999 NOSIG
21:30
I
31 °C 3,5 km 8.000 ft 160° 160° 5 kt METAR VAAH 211600Z 16005KT 3500 HZ SCT015 BKN080 31/26 Q0998 NOSIG
21:00
I
31 °C 3,5 km 8.000 ft 140° 140° 4 kt METAR VAAH 211530Z 14004KT 3500 HZ SCT015 BKN080 31/25 Q0998 NOSIG
20:30
I
31 °C 4 km 8.000 ft 150° 150° 5 kt METAR VAAH 211500Z 15005KT 4000 HZ SCT015 BKN080 31/25 Q0998 NOSIG
20:00
I
31 °C 4 km 8.000 ft 150° 150° 4 kt METAR VAAH 211430Z 15004KT 4000 HZ FEW015 SCT020 BKN080 31/26 Q0997 NOSIG
19:30
I
31 °C 4 km 8.000 ft 140° 140° 6 kt METAR VAAH 211400Z 14006KT 4000 HZ SCT020 BKN080 31/25 Q0997 NOSIG
19:00
I
31 °C 4 km 8.000 ft 120° 120° 5 kt METAR VAAH 211330Z 12005KT 4000 HZ SCT020 BKN080 31/25 Q0996 NOSIG
18:30
I
31 °C 4 km 8.000 ft 060° 060° 4 kt METAR VAAH 211300Z 06004KT 4000 HZ SCT020 BKN080 31/25 Q0996 NOSIG
18:00
I
32 °C 4 km 8.000 ft 080° 080° 4 kt METAR VAAH 211230Z 08004KT 4000 HZ FEW020 SCT025 BKN080 32/25 Q0996 NOSIG
17:30
I
32 °C 4 km 8.000 ft 070° 070° 3 kt METAR VAAH 211200Z 07003KT 4000 HZ FEW020 SCT025 BKN080 32/24 Q0996 NOSIG
17:00
I
32 °C 4 km 8.000 ft 060° 060° 2 kt METAR VAAH 211130Z 06002KT 4000 HZ FEW020 SCT025 BKN080 32/25 Q0996 NOSIG
16:30
I
32 °C 4 km 8.000 ft 080° 080° 3 kt METAR VAAH 211100Z 08003KT 4000 HZ FEW018 SCT025 BKN080 32/25 Q0997 NOSIG
16:00
I
33 °C 4 km 8.000 ft 090° 090° 2 kt METAR VAAH 211030Z 09002KT 4000 HZ FEW018 SCT025 BKN080 33/25 Q0997 NOSIG
15:30
I
33 °C 4 km 8.000 ft Var Var 2 kt METAR VAAH 211000Z VRB02KT 4000 HZ FEW018 SCT025 OVC080 33/25 Q0997 NOSIG
15:00
I
32 °C 4 km 8.000 ft Var Var 2 kt METAR VAAH 210930Z VRB02KT 4000 HZ FEW018 SCT025 OVC080 32/24 Q0997 NOSIG
14:30
I
32 °C 4 km 8.000 ft 140° 140° 3 kt METAR VAAH 210900Z 14003KT 4000 HZ FEW015 SCT020 OVC080 32/24 Q0997 NOSIG
14:00
I
32 °C 4 km 8.000 ft 170° 170° 6 kt METAR VAAH 210830Z 17006KT 4000 HZ FEW015 SCT020 OVC080 32/24 Q0998 NOSIG
13:30
I
32 °C 4 km 8.000 ft 170° 170° 3 kt METAR VAAH 210800Z 17003KT 4000 HZ FEW015 SCT020 OVC080 32/24 Q0998 NOSIG
13:00
I
32 °C 4 km 8.000 ft 160° 160° 3 kt METAR VAAH 210730Z 16003KT 4000 HZ FEW015 SCT020 OVC080 32/25 Q0999 NOSIG
12:30
I
31 °C 4 km 8.000 ft 110° 110° 4 kt METAR VAAH 210700Z 11004KT 4000 HZ FEW015 SCT020 BKN080 31/24 Q0999 NOSIG
12:00
I
31 °C 4 km 8.000 ft 120° 120° 4 kt METAR VAAH 210630Z 12004KT 4000 HZ FEW015 SCT020 BKN080 31/25 Q0999 NOSIG
11:30
I
31 °C 4 km 8.000 ft 130° 130° 3 kt METAR VAAH 210600Z 13003KT 4000 HZ FEW015 SCT020 BKN080 31/25 Q1000 NOSIG
11:00
I
31 °C 3 km 8.000 ft 120° 120° 3 kt METAR VAAH 210530Z 12003KT 3000 HZ FEW015 SCT020 BKN080 31/24 Q1000 NOSIG
10:30
I
30 °C 3 km 8.000 ft 070° 070° 4 kt METAR VAAH 210500Z 07004KT 3000 HZ FEW015 SCT020 BKN080 30/24 Q1000 NOSIG
10:00
I
30 °C 3 km 8.000 ft 110° 110° 3 kt METAR VAAH 210430Z 11003KT 3000 HZ FEW015 SCT020 BKN080 30/24 Q0999 NOSIG
09:30
I
29 °C 3 km 8.000 ft 360° 360° 0 kt METAR VAAH 210400Z 00000KT 3000 HZ FEW015 SCT020 BKN080 29/24 Q0999 NOSIG
09:00
I
29 °C 3 km 8.000 ft 150° 150° 3 kt METAR VAAH 210330Z 15003KT 3000 HZ FEW015 SCT020 BKN080 29/24 Q0999 NOSIG
08:30
I
29 °C 3 km 8.000 ft 360° 360° 0 kt METAR VAAH 210300Z 00000KT 3000 BR SCT012 SCT020 BKN080 29/25 Q0999 TEMPO 1500 DZ
08:00
I
28 °C 2,5 km 8.000 ft 190° 190° 4 kt METAR VAAH 210230Z 19004KT 2500 BR SCT012 SCT020 OVC080 28/25 Q0999 TEMPO 1500 +DZ
07:30
I
28 °C 3 km 8.000 ft 190° 190° 4 kt METAR VAAH 210200Z 19004KT 3000 BR SCT012 SCT020 OVC080 28/25 Q0999 NOSIG
07:00
I
28 °C 3 km 8.000 ft 190° 190° 8 kt METAR VAAH 210130Z 19008KT 3000 BR SCT012 SCT020 OVC080 28/25 Q0999 TEMPO 2000 DZ
06:30
I
28 °C 3 km 8.000 ft 160° 160° 8 kt METAR VAAH 210100Z 16008KT 3000 BR SCT012 SCT020 OVC080 28/25 Q0998 TEMPO 2000 DZ
06:00
I
28 °C 4 km - 150° 150° 6 kt METAR VAAH 210030Z 15006KT 4000 BR FEW012 SCT020 28/25 Q0998 NOSIG
05:30
I
28 °C 4 km - 180° 180° 6 kt METAR VAAH 210000Z 18006KT 4000 BR FEW012 SCT020 28/25 Q0997 NOSIG
05:00
I
28 °C 4 km - 180° 180° 6 kt METAR VAAH 202330Z 18006KT 4000 BR FEW012 SCT020 28/25 Q0997 NOSIG
04:30
I
28 °C 4 km - 190° 190° 8 kt METAR VAAH 202300Z 19008KT 4000 BR FEW015 SCT020 28/25 Q0997 NOSIG
04:00
I
28 °C 4 km - 190° 190° 8 kt METAR VAAH 202230Z 19008KT 4000 BR FEW015 SCT020 28/25 Q0997 NOSIG
03:30
I
28 °C 4 km 8.000 ft 150° 150° 6 kt METAR VAAH 202200Z 15006KT 4000 BR FEW015 SCT020 BKN080 28/26 Q0997 NOSIG
03:00
I
28 °C 4 km 8.000 ft 150° 150° 6 kt METAR VAAH 202130Z 15006KT 4000 BR FEW015 SCT020 BKN080 28/26 Q0997 NOSIG
02:30
I
28 °C 4 km 8.000 ft 150° 150° 5 kt METAR VAAH 202100Z 15005KT 4000 BR FEW015 SCT020 BKN080 28/26 Q0997 NOSIG
02:00
I
28 °C 4 km 8.000 ft 150° 150° 5 kt METAR VAAH 202030Z 15005KT 4000 BR SCT018 BKN080 28/26 Q0997 NOSIG
01:30
I
28 °C 4 km 8.000 ft 130° 130° 5 kt METAR VAAH 202000Z 13005KT 4000 BR SCT018 BKN080 28/26 Q0997 NOSIG
01:00
I
29 °C 4 km 8.000 ft 150° 150° 5 kt METAR VAAH 201930Z 15005KT 4000 HZ SCT018 BKN080 29/26 Q0998 NOSIG
00:30
I
29 °C 4 km 8.000 ft 140° 140° 5 kt METAR VAAH 201900Z 14005KT 4000 HZ SCT018 BKN080 29/26 Q0999 NOSIG
00:00
I
29 °C 4 km 8.000 ft 130° 130° 4 kt METAR VAAH 201830Z 13004KT 4000 HZ SCT018 BKN080 29/25 Q0999 NOSIG

20 luglio 2024

Tempo Codice Tempo meteorologico Temp. Vista Base nuvolosa Vento METAR/SPECI
23:30
I
29 °C 4 km 8.000 ft 130° 130° 5 kt METAR VAAH 201800Z 13005KT 4000 HZ SCT018 BKN080 29/25 Q0999 NOSIG
23:00
I
29 °C 4 km 8.000 ft 120° 120° 6 kt METAR VAAH 201730Z 12006KT 4000 HZ SCT018 BKN080 29/25 Q0999 NOSIG
22:30
I
29 °C 4 km 8.000 ft 130° 130° 6 kt METAR VAAH 201700Z 13006KT 4000 HZ FEW015 SCT020 BKN080 29/25 Q0999 NOSIG
22:00
I
29 °C 4 km 8.000 ft 100° 100° 4 kt METAR VAAH 201630Z 10004KT 4000 HZ FEW012 SCT020 BKN080 29/25 Q0999 NOSIG
21:30
I
29 °C 4 km 8.000 ft 130° 130° 7 kt METAR VAAH 201600Z 13007KT 4000 HZ FEW012 SCT020 BKN080 29/25 Q0999 NOSIG
21:00
I
30 °C 4 km 8.000 ft 150° 150° 6 kt METAR VAAH 201530Z 15006KT 4000 HZ FEW012 SCT020 BKN080 30/25 Q0998 NOSIG
20:30
I
30 °C 4 km 8.000 ft 150° 150° 6 kt METAR VAAH 201500Z 15006KT 4000 HZ FEW012 SCT020 BKN080 30/25 Q0998 NOSIG
20:00
I
31 °C 4 km 8.000 ft 130° 130° 10 kt METAR VAAH 201430Z 13010KT 4000 HZ FEW015 SCT020 BKN080 31/25 Q0998 NOSIG
19:30
I
31 °C 4 km 8.000 ft 130° 130° 7 kt METAR VAAH 201400Z 13007KT 4000 HZ FEW015 SCT020 BKN080 31/25 Q0998 NOSIG
19:00
I
31 °C 4 km 8.000 ft 140° 140° 8 kt METAR VAAH 201330Z 14008KT 4000 HZ SCT020 SCT025 BKN080 31/25 Q0997 NOSIG
18:30
I
31 °C 4 km 8.000 ft 150° 150° 9 kt METAR VAAH 201300Z 15009KT 4000 HZ SCT020 SCT025 BKN080 31/26 Q0997 NOSIG
18:00
I
32 °C 4 km 8.000 ft 140° 140° 7 kt METAR VAAH 201230Z 14007KT 4000 HZ SCT020 SCT025 BKN080 32/25 Q0996 NOSIG
17:30
I
32 °C 4 km 8.000 ft 150° 150° 10 kt METAR VAAH 201200Z 15010KT 4000 FU FEW015 SCT020 BKN080 32/25 Q0996 TEMPO 3000 -DZ
17:00
I
33 °C 4 km 8.000 ft 130° 130° 6 kt METAR VAAH 201130Z 13006KT 4000 FU SCT020 SCT025 BKN080 33/25 Q0996 NOSIG
16:30
I
33 °C 4 km 8.000 ft 130° 130° 5 kt METAR VAAH 201100Z 13005KT 4000 FU SCT020 SCT025 BKN080 33/25 Q0996 NOSIG
16:00
I
32 °C 4 km 8.000 ft 130° 130° 5 kt METAR VAAH 201030Z 13005KT 4000 FU SCT020 SCT025 BKN080 32/25 Q0996 NOSIG
15:30
I
32 °C 4 km 8.000 ft 130° 130° 7 kt METAR VAAH 201000Z 13007KT 4000 FU SCT020 SCT025 BKN080 32/25 Q0996 NOSIG
15:00
I
33 °C 4 km 8.000 ft 160° 160° 7 kt METAR VAAH 200930Z 16007KT 4000 FU SCT020 SCT025 BKN080 33/25 Q0997 NOSIG
14:30
I
32 °C 4 km 8.000 ft 150° 150° 7 kt METAR VAAH 200900Z 15007KT 4000 FU SCT020 SCT025 BKN080 32/25 Q0997 NOSIG
14:00
I
33 °C 4 km - 140° 140° 6 kt METAR VAAH 200830Z 14006KT 4000 FU SCT020 SCT025 33/25 Q0997 NOSIG
13:30
I
33 °C 4 km - 070° 070° 5 kt METAR VAAH 200800Z 07005KT 4000 FU SCT020 SCT025 33/25 Q0997 NOSIG
13:00
I
33 °C 4 km - 130° 130° 4 kt METAR VAAH 200730Z 13004KT 4000 FU SCT020 SCT025 33/24 Q0998 NOSIG
12:30
I
32 °C 4 km - 120° 120° 3 kt METAR VAAH 200700Z 12003KT 4000 HZ SCT020 SCT025 32/25 Q0998 NOSIG
12:00
I
31 °C 4 km - 120° 120° 4 kt METAR VAAH 200630Z 12004KT 4000 HZ SCT020 SCT025 31/25 Q0999 NOSIG
11:30
I
31 °C 3 km - 110° 110° 5 kt METAR VAAH 200600Z 11005KT 3000 HZ SCT020 SCT025 31/25 Q0999 BECMG 4000
Segnala modifiche